Seamusic — 9HZL9 — position and weather

sailwx.info

Track history (hours):
 
Tides and Currents Weather Stations Pressure Air Temp Water Temp Dewpoint Dewpoint Depression Visibility Wind Speed Wind Dir Waves Ship Positions

Seamusic

Last reported at 2018-Feb-16 16:31 UTC. Time now 2018-Feb-21 05:47 UTC.
Position N 37°13' W 026°40'.

Length 250 m; draft 13.3 m.

Type: Ship (hazmat cat D). MMSI: 249746000.

Date/timePositionNaut miles runAvg speedWind from/ knotsBaromVisibWave heightAir tempDewpointWater temp
2018-Feb-16 16:31N 37°13' W 026°40'111.2
2018-Feb-16 16:26N 37°13' W 026°39'1211.2
2018-Feb-16 15:22N 37°16' W 026°24'410.9
2018-Feb-16 14:59N 37°17' W 026°19'511.0
2018-Feb-16 14:31N 37°19' W 026°13'510.9
2018-Feb-16 14:00N 37°21' W 026°06'510.6
2018-Feb-16 13:30N 37°22' W 025°60'510.6
2018-Feb-16 13:01N 37°23' W 025°53'510.9
2018-Feb-16 12:30N 37°25' W 025°47'611.1
2018-Feb-16 12:01N 37°26' W 025°40'611.2
2018-Feb-16 11:30N 37°28' W 025°33'611.5
2018-Feb-16 11:01N 37°29' W 025°26'611.7
2018-Feb-16 10:30N 37°31' W 025°19'612.1
2018-Feb-16 10:01N 37°32' W 025°12'611.8
2018-Feb-16 09:30N 37°34' W 025°04'611.4
2018-Feb-16 09:00N 37°33' W 024°57'611.5
2018-Feb-16 08:30N 37°33' W 024°50'611.2
2018-Feb-16 08:00N 37°32' W 024°43'510.8
2018-Feb-16 07:30N 37°31' W 024°36'510.5
2018-Feb-16 07:00N 37°31' W 024°30'510.4
2018-Feb-16 06:31N 37°30' W 024°23'510.5
2018-Feb-16 06:00N 37°30' W 024°17'510.3
2018-Feb-16 05:30N 37°29' W 024°10'510.4
2018-Feb-16 05:00N 37°29' W 024°04'510.7
2018-Feb-16 04:30N 37°28' W 023°57'510.6
2018-Feb-16 04:00N 37°28' W 023°50'510.2
2018-Feb-16 03:30N 37°27' W 023°44'5 9.6
2018-Feb-16 03:01N 37°26' W 023°38'  
2018-Feb-12 14:08N 35°58' W 005°33'2 9.8
2018-Feb-12 13:58N 35°59' W 005°31'4 9.4
2018-Feb-12 13:31N 36°00' W 005°26'5 9.0
2018-Feb-12 13:00N 36°02' W 005°21'5 9.8
2018-Feb-12 12:31N 36°03' W 005°15'  
2018-Feb-08 21:30N 36°23' E 014°25'  
Track history (hours):
 
Tides and Currents Weather Stations Pressure Air Temp Water Temp Dewpoint Dewpoint Depression Visibility Wind Speed Wind Dir Waves Ship Positions

Seamusic

Last reported at 2018-Feb-16 16:31 UTC. Time now 2018-Feb-21 05:47 UTC.
Position N 37°13' W 026°40'.

Length 250 m; draft 13.3 m.

Type: Ship (hazmat cat D). MMSI: 249746000.

Date/timePositionNaut miles runAvg speedWind from/ knotsBaromVisibWave heightAir tempDewpointWater temp
2018-Feb-16 16:31N 37°13' W 026°40'111.2
2018-Feb-16 16:26N 37°13' W 026°39'1211.2
2018-Feb-16 15:22N 37°16' W 026°24'410.9
2018-Feb-16 14:59N 37°17' W 026°19'511.0
2018-Feb-16 14:31N 37°19' W 026°13'510.9
2018-Feb-16 14:00N 37°21' W 026°06'510.6
2018-Feb-16 13:30N 37°22' W 025°60'510.6
2018-Feb-16 13:01N 37°23' W 025°53'510.9
2018-Feb-16 12:30N 37°25' W 025°47'611.1
2018-Feb-16 12:01N 37°26' W 025°40'611.2
2018-Feb-16 11:30N 37°28' W 025°33'611.5
2018-Feb-16 11:01N 37°29' W 025°26'611.7
2018-Feb-16 10:30N 37°31' W 025°19'612.1
2018-Feb-16 10:01N 37°32' W 025°12'611.8
2018-Feb-16 09:30N 37°34' W 025°04'611.4
2018-Feb-16 09:00N 37°33' W 024°57'611.5
2018-Feb-16 08:30N 37°33' W 024°50'611.2
2018-Feb-16 08:00N 37°32' W 024°43'510.8
2018-Feb-16 07:30N 37°31' W 024°36'510.5
2018-Feb-16 07:00N 37°31' W 024°30'510.4
2018-Feb-16 06:31N 37°30' W 024°23'510.5
2018-Feb-16 06:00N 37°30' W 024°17'510.3
2018-Feb-16 05:30N 37°29' W 024°10'510.4
2018-Feb-16 05:00N 37°29' W 024°04'510.7
2018-Feb-16 04:30N 37°28' W 023°57'510.6
2018-Feb-16 04:00N 37°28' W 023°50'510.2
2018-Feb-16 03:30N 37°27' W 023°44'5 9.6
2018-Feb-16 03:01N 37°26' W 023°38'  
2018-Feb-12 14:08N 35°58' W 005°33'2 9.8
2018-Feb-12 13:58N 35°59' W 005°31'4 9.4
2018-Feb-12 13:31N 36°00' W 005°26'5 9.0
2018-Feb-12 13:00N 36°02' W 005°21'5 9.8
2018-Feb-12 12:31N 36°03' W 005°15'  
2018-Feb-08 21:30N 36°23' E 014°25'  

Dump ship's entire track history